sensor_id;sensor_type;location;lat;lon;timestamp;pressure;altitude;pressure_sealevel;temperature;humidity
24858;BME280;12935;50.782;6.074;2024-03-23T00:53:26;98889.34;;;7.53;100.00
24858;BME280;12935;50.782;6.074;2024-03-23T00:55:51;98870.69;;;7.34;100.00
24858;BME280;12935;50.782;6.074;2024-03-23T00:58:16;98885.81;;;7.56;100.00
24858;BME280;12935;50.782;6.074;2024-03-23T01:00:41;98891.63;;;7.40;100.00
24858;BME280;12935;50.782;6.074;2024-03-23T01:03:07;98889.69;;;7.27;100.00
24858;BME280;12935;50.782;6.074;2024-03-23T01:05:32;98892.38;;;7.13;100.00
24858;BME280;12935;50.782;6.074;2024-03-23T01:07:57;98890.44;;;7.13;100.00
24858;BME280;12935;50.782;6.074;2024-03-23T01:10:22;98878.00;;;7.01;100.00
24858;BME280;12935;50.782;6.074;2024-03-23T01:12:48;98889.28;;;7.07;100.00
24858;BME280;12935;50.782;6.074;2024-03-23T01:15:13;98882.66;;;7.12;100.00
24858;BME280;12935;50.782;6.074;2024-03-23T01:17:38;98875.31;;;7.19;100.00
24858;BME280;12935;50.782;6.074;2024-03-23T01:20:04;98883.81;;;7.11;100.00
24858;BME280;12935;50.782;6.074;2024-03-23T01:22:30;98887.31;;;7.04;100.00
24858;BME280;12935;50.782;6.074;2024-03-23T01:24:55;98852.34;;;6.85;100.00
24858;BME280;12935;50.782;6.074;2024-03-23T01:27:20;98869.47;;;7.07;100.00
24858;BME280;12935;50.782;6.074;2024-03-23T01:29:46;98872.94;;;6.96;100.00
24858;BME280;12935;50.782;6.074;2024-03-23T01:32:11;98880.72;;;7.09;100.00
24858;BME280;12935;50.782;6.074;2024-03-23T01:34:36;98892.38;;;7.06;100.00
24858;BME280;12935;50.782;6.074;2024-03-23T01:37:02;98893.44;;;6.73;100.00
24858;BME280;12935;50.782;6.074;2024-03-23T01:39:27;98902.41;;;6.87;100.00
24858;BME280;12935;50.782;6.074;2024-03-23T01:41:52;98905.47;;;6.75;100.00
24858;BME280;12935;50.782;6.074;2024-03-23T01:44:18;98886.72;;;6.45;100.00
24858;BME280;12935;50.782;6.074;2024-03-23T01:46:43;98892.09;;;6.34;100.00
24858;BME280;12935;50.782;6.074;2024-03-23T01:49:09;98884.69;;;6.24;100.00
24858;BME280;12935;50.782;6.074;2024-03-23T01:51:36;98883.59;;;6.40;100.00
24858;BME280;12935;50.782;6.074;2024-03-23T01:54:02;98888.59;;;6.34;100.00
24858;BME280;12935;50.782;6.074;2024-03-23T01:56:32;98888.66;;;6.41;100.00
24858;BME280;12935;50.782;6.074;2024-03-23T01:59:00;98880.91;;;6.43;100.00
24858;BME280;12935;50.782;6.074;2024-03-23T02:01:25;98877.00;;;6.37;100.00
24858;BME280;12935;50.782;6.074;2024-03-23T02:03:51;98884.34;;;6.29;100.00
24858;BME280;12935;50.782;6.074;2024-03-23T02:06:16;98888.50;;;6.16;100.00
24858;BME280;12935;50.782;6.074;2024-03-23T02:08:41;98894.25;;;6.04;100.00
24858;BME280;12935;50.782;6.074;2024-03-23T02:11:08;98897.00;;;6.11;100.00
24858;BME280;12935;50.782;6.074;2024-03-23T02:13:33;98891.22;;;6.13;100.00
24858;BME280;12935;50.782;6.074;2024-03-23T02:15:58;98895.00;;;6.05;100.00
24858;BME280;12935;50.782;6.074;2024-03-23T02:18:24;98910.47;;;5.97;100.00
24858;BME280;12935;50.782;6.074;2024-03-23T02:20:49;98905.78;;;5.90;100.00
24858;BME280;12935;50.782;6.074;2024-03-23T02:23:15;98892.53;;;5.82;100.00
24858;BME280;12935;50.782;6.074;2024-03-23T02:25:41;98878.19;;;5.85;100.00
24858;BME280;12935;50.782;6.074;2024-03-23T02:28:06;98898.72;;;5.82;100.00
24858;BME280;12935;50.782;6.074;2024-03-23T02:30:32;98894.03;;;5.79;100.00
24858;BME280;12935;50.782;6.074;2024-03-23T02:32:57;98894.03;;;5.79;100.00
24858;BME280;12935;50.782;6.074;2024-03-23T02:35:22;98875.47;;;5.85;100.00
24858;BME280;12935;50.782;6.074;2024-03-23T02:37:47;98879.75;;;5.82;100.00
24858;BME280;12935;50.782;6.074;2024-03-23T02:40:16;98870.19;;;5.95;100.00
24858;BME280;12935;50.782;6.074;2024-03-23T02:42:42;98865.25;;;6.15;100.00
24858;BME280;12935;50.782;6.074;2024-03-23T02:45:07;98854.47;;;6.33;100.00
24858;BME280;12935;50.782;6.074;2024-03-23T02:47:33;98849.28;;;6.03;100.00
24858;BME280;12935;50.782;6.074;2024-03-23T02:49:58;98845.06;;;6.09;100.00
24858;BME280;12935;50.782;6.074;2024-03-23T02:52:23;98847.03;;;6.12;100.00
24858;BME280;12935;50.782;6.074;2024-03-23T02:54:48;98859.72;;;6.01;100.00
24858;BME280;12935;50.782;6.074;2024-03-23T02:57:14;98870.56;;;5.94;100.00
24858;BME280;12935;50.782;6.074;2024-03-23T02:59:39;98864.69;;;5.88;100.00
24858;BME280;12935;50.782;6.074;2024-03-23T03:02:04;98851.59;;;5.97;100.00
24858;BME280;12935;50.782;6.074;2024-03-23T03:04:30;98847.84;;;6.20;100.00
24858;BME280;12935;50.782;6.074;2024-03-23T03:06:56;98838.19;;;6.33;100.00
24858;BME280;12935;50.782;6.074;2024-03-23T03:09:21;98838.13;;;6.15;100.00
24858;BME280;12935;50.782;6.074;2024-03-23T03:11:47;98842.69;;;5.97;100.00
24858;BME280;12935;50.782;6.074;2024-03-23T03:14:12;98850.00;;;5.93;100.00
24858;BME280;12935;50.782;6.074;2024-03-23T03:16:37;98837.31;;;6.08;100.00
24858;BME280;12935;50.782;6.074;2024-03-23T03:19:03;98852.88;;;6.21;100.00
24858;BME280;12935;50.782;6.074;2024-03-23T03:21:28;98834.63;;;6.11;100.00
24858;BME280;12935;50.782;6.074;2024-03-23T03:23:53;98836.59;;;6.21;100.00
24858;BME280;12935;50.782;6.074;2024-03-23T03:26:21;98862.66;;;6.40;100.00
24858;BME280;12935;50.782;6.074;2024-03-23T03:28:46;98866.88;;;6.27;100.00
24858;BME280;12935;50.782;6.074;2024-03-23T03:31:15;98878.72;;;6.01;100.00
24858;BME280;12935;50.782;6.074;2024-03-23T03:33:40;98891.47;;;5.93;100.00
24858;BME280;12935;50.782;6.074;2024-03-23T03:36:05;98888.25;;;5.84;100.00
24858;BME280;12935;50.782;6.074;2024-03-23T03:38:31;98884.38;;;5.82;100.00
24858;BME280;12935;50.782;6.074;2024-03-23T03:40:56;98889.19;;;6.03;100.00
24858;BME280;12935;50.782;6.074;2024-03-23T03:43:22;98881.09;;;6.10;100.00
24858;BME280;12935;50.782;6.074;2024-03-23T03:45:52;98884.91;;;5.98;100.00
24858;BME280;12935;50.782;6.074;2024-03-23T03:48:17;98879.22;;;6.14;100.00
24858;BME280;12935;50.782;6.074;2024-03-23T03:50:43;98866.44;;;6.21;100.00
24858;BME280;12935;50.782;6.074;2024-03-23T03:53:08;98862.59;;;6.26;100.00
24858;BME280;12935;50.782;6.074;2024-03-23T03:55:33;98865.25;;;6.19;100.00
24858;BME280;12935;50.782;6.074;2024-03-23T03:57:59;98869.50;;;6.13;100.00
24858;BME280;12935;50.782;6.074;2024-03-23T04:00:24;98867.81;;;5.90;100.00
24858;BME280;12935;50.782;6.074;2024-03-23T04:02:50;98873.66;;;5.96;100.00
24858;BME280;12935;50.782;6.074;2024-03-23T04:05:15;98862.00;;;5.92;100.00
24858;BME280;12935;50.782;6.074;2024-03-23T04:07:42;98875.88;;;5.87;100.00
24858;BME280;12935;50.782;6.074;2024-03-23T04:10:07;98867.72;;;5.80;100.00
24858;BME280;12935;50.782;6.074;2024-03-23T04:12:33;98873.13;;;5.80;100.00
24858;BME280;12935;50.782;6.074;2024-03-23T04:14:59;98863.44;;;5.79;100.00
24858;BME280;12935;50.782;6.074;2024-03-23T04:17:24;98884.13;;;5.97;100.00
24858;BME280;12935;50.782;6.074;2024-03-23T04:19:50;98870.44;;;5.80;100.00
24858;BME280;12935;50.782;6.074;2024-03-23T04:22:17;98880.47;;;5.76;100.00
24858;BME280;12935;50.782;6.074;2024-03-23T04:24:42;98872.00;;;5.81;100.00
24858;BME280;12935;50.782;6.074;2024-03-23T04:27:08;98867.63;;;5.66;100.00
24858;BME280;12935;50.782;6.074;2024-03-23T04:29:33;98872.22;;;5.61;100.00
24858;BME280;12935;50.782;6.074;2024-03-23T04:31:58;98862.91;;;5.59;100.00
24858;BME280;12935;50.782;6.074;2024-03-23T04:34:24;98859.38;;;5.55;100.00
24858;BME280;12935;50.782;6.074;2024-03-23T04:36:49;98857.84;;;5.54;100.00
24858;BME280;12935;50.782;6.074;2024-03-23T04:39:15;98859.47;;;5.62;100.00
24858;BME280;12935;50.782;6.074;2024-03-23T04:41:40;98870.72;;;5.64;100.00
24858;BME280;12935;50.782;6.074;2024-03-23T04:44:05;98866.84;;;5.69;100.00
24858;BME280;12935;50.782;6.074;2024-03-23T04:46:31;98856.72;;;5.58;100.00
24858;BME280;12935;50.782;6.074;2024-03-23T04:48:56;98868.88;;;5.79;100.00
24858;BME280;12935;50.782;6.074;2024-03-23T04:51:25;98862.31;;;5.80;100.00
24858;BME280;12935;50.782;6.074;2024-03-23T04:53:50;98871.63;;;5.86;100.00
24858;BME280;12935;50.782;6.074;2024-03-23T04:56:16;98871.94;;;5.74;100.00
24858;BME280;12935;50.782;6.074;2024-03-23T04:58:42;98872.63;;;5.63;100.00
24858;BME280;12935;50.782;6.074;2024-03-23T05:01:07;98874.22;;;5.72;100.00
24858;BME280;12935;50.782;6.074;2024-03-23T05:03:33;98878.50;;;5.73;100.00
24858;BME280;12935;50.782;6.074;2024-03-23T05:05:58;98874.59;;;5.70;100.00
24858;BME280;12935;50.782;6.074;2024-03-23T05:08:24;98868.78;;;5.64;100.00
24858;BME280;12935;50.782;6.074;2024-03-23T05:10:49;98875.84;;;5.80;100.00
24858;BME280;12935;50.782;6.074;2024-03-23T05:13:14;98873.44;;;5.71;100.00
24858;BME280;12935;50.782;6.074;2024-03-23T05:15:39;98870.78;;;5.75;100.00
24858;BME280;12935;50.782;6.074;2024-03-23T05:18:05;98872.63;;;5.67;100.00
24858;BME280;12935;50.782;6.074;2024-03-23T05:20:31;98874.19;;;5.68;100.00
24858;BME280;12935;50.782;6.074;2024-03-23T05:22:56;98871.53;;;5.72;100.00
24858;BME280;12935;50.782;6.074;2024-03-23T05:25:22;98881.28;;;5.80;100.00
24858;BME280;12935;50.782;6.074;2024-03-23T05:27:47;98872.28;;;5.72;100.00
24858;BME280;12935;50.782;6.074;2024-03-23T05:30:13;98873.41;;;5.64;100.00
24858;BME280;12935;50.782;6.074;2024-03-23T05:32:38;98875.38;;;5.71;100.00
24858;BME280;12935;50.782;6.074;2024-03-23T05:35:06;98880.31;;;5.58;100.00
24858;BME280;12935;50.782;6.074;2024-03-23T05:37:32;98882.66;;;5.59;100.00
24858;BME280;12935;50.782;6.074;2024-03-23T05:39:59;98881.81;;;5.52;100.00
24858;BME280;12935;50.782;6.074;2024-03-23T05:42:24;98893.72;;;5.40;100.00
24858;BME280;12935;50.782;6.074;2024-03-23T05:44:49;98890.72;;;5.52;100.00
24858;BME280;12935;50.782;6.074;2024-03-23T05:47:15;98891.13;;;5.51;100.00
24858;BME280;12935;50.782;6.074;2024-03-23T05:49:42;98885.31;;;5.52;100.00
24858;BME280;12935;50.782;6.074;2024-03-23T05:52:08;98884.13;;;5.50;100.00
24858;BME280;12935;50.782;6.074;2024-03-23T05:54:34;98879.06;;;5.45;100.00
24858;BME280;12935;50.782;6.074;2024-03-23T05:56:59;98880.69;;;5.56;100.00
24858;BME280;12935;50.782;6.074;2024-03-23T05:59:24;98882.63;;;5.56;100.00
24858;BME280;12935;50.782;6.074;2024-03-23T06:01:50;98882.28;;;5.61;100.00
24858;BME280;12935;50.782;6.074;2024-03-23T06:04:15;98887.25;;;5.55;100.00
24858;BME280;12935;50.782;6.074;2024-03-23T06:06:40;98884.19;;;5.57;100.00
24858;BME280;12935;50.782;6.074;2024-03-23T06:09:06;98893.09;;;5.57;100.00
24858;BME280;12935;50.782;6.074;2024-03-23T06:11:31;98886.84;;;5.50;100.00
24858;BME280;12935;50.782;6.074;2024-03-23T06:13:56;98892.72;;;5.59;100.00
24858;BME280;12935;50.782;6.074;2024-03-23T06:16:22;98890.41;;;5.61;100.00
24858;BME280;12935;50.782;6.074;2024-03-23T06:18:52;98896.38;;;5.81;100.00
24858;BME280;12935;50.782;6.074;2024-03-23T06:21:18;98891.84;;;5.92;100.00
24858;BME280;12935;50.782;6.074;2024-03-23T06:23:44;98905.00;;;5.90;100.00
24858;BME280;12935;50.782;6.074;2024-03-23T06:26:17;98900.25;;;5.83;100.00
24858;BME280;12935;50.782;6.074;2024-03-23T06:28:42;98898.47;;;5.98;100.00
24858;BME280;12935;50.782;6.074;2024-03-23T06:31:10;98902.00;;;6.06;100.00
24858;BME280;12935;50.782;6.074;2024-03-23T06:33:36;98907.75;;;5.97;100.00
24858;BME280;12935;50.782;6.074;2024-03-23T06:36:01;98906.56;;;5.91;100.00
24858;BME280;12935;50.782;6.074;2024-03-23T06:38:28;98908.91;;;5.96;100.00
24858;BME280;12935;50.782;6.074;2024-03-23T06:40:53;98904.75;;;6.16;100.00
24858;BME280;12935;50.782;6.074;2024-03-23T06:43:18;98899.06;;;6.28;100.00
24858;BME280;12935;50.782;6.074;2024-03-23T06:45:44;98906.44;;;6.35;100.00
24858;BME280;12935;50.782;6.074;2024-03-23T06:48:09;98899.09;;;6.39;100.00
24858;BME280;12935;50.782;6.074;2024-03-23T06:50:34;98907.47;;;6.13;100.00
24858;BME280;12935;50.782;6.074;2024-03-23T06:53:00;98914.31;;;5.92;100.00
24858;BME280;12935;50.782;6.074;2024-03-23T06:55:27;98906.63;;;6.05;100.00
24858;BME280;12935;50.782;6.074;2024-03-23T06:57:53;98913.56;;;5.99;100.00
24858;BME280;12935;50.782;6.074;2024-03-23T07:00:18;98913.66;;;6.10;100.00
24858;BME280;12935;50.782;6.074;2024-03-23T07:02:44;98917.66;;;6.33;100.00
24858;BME280;12935;50.782;6.074;2024-03-23T07:05:09;98909.22;;;6.49;100.00
24858;BME280;12935;50.782;6.074;2024-03-23T07:07:35;98917.03;;;6.58;100.00
24858;BME280;12935;50.782;6.074;2024-03-23T07:10:01;98922.09;;;6.66;100.00
24858;BME280;12935;50.782;6.074;2024-03-23T07:12:26;98926.34;;;6.64;100.00
24858;BME280;12935;50.782;6.074;2024-03-23T07:14:51;98923.66;;;6.67;100.00
24858;BME280;12935;50.782;6.074;2024-03-23T07:17:17;98911.19;;;6.56;100.00
24858;BME280;12935;50.782;6.074;2024-03-23T07:19:43;98907.63;;;6.38;100.00
24858;BME280;12935;50.782;6.074;2024-03-23T07:22:08;98915.81;;;6.52;100.00
24858;BME280;12935;50.782;6.074;2024-03-23T07:24:34;98918.59;;;6.59;100.00
24858;BME280;12935;50.782;6.074;2024-03-23T07:26:59;98909.69;;;6.69;100.00
24858;BME280;12935;50.782;6.074;2024-03-23T07:29:24;98907.81;;;6.84;100.00
24858;BME280;12935;50.782;6.074;2024-03-23T07:31:50;98914.44;;;6.90;100.00
24858;BME280;12935;50.782;6.074;2024-03-23T07:34:15;98911.72;;;6.90;100.00
24858;BME280;12935;50.782;6.074;2024-03-23T07:36:40;98902.75;;;6.75;100.00
24858;BME280;12935;50.782;6.074;2024-03-23T07:39:05;98916.00;;;6.98;100.00
24858;BME280;12935;50.782;6.074;2024-03-23T07:41:31;98918.34;;;7.03;100.00
24858;BME280;12935;50.782;6.074;2024-03-23T07:43:56;98909.06;;;7.08;100.00
24858;BME280;12935;50.782;6.074;2024-03-23T07:46:21;98902.88;;;7.21;100.00
24858;BME280;12935;50.782;6.074;2024-03-23T07:48:47;98907.06;;;6.90;100.00
24858;BME280;12935;50.782;6.074;2024-03-23T07:51:21;98911.34;;;6.95;100.00
24858;BME280;12935;50.782;6.074;2024-03-23T07:53:47;98907.53;;;7.21;100.00
24858;BME280;12935;50.782;6.074;2024-03-23T07:56:14;98912.22;;;7.24;100.00
24858;BME280;12935;50.782;6.074;2024-03-23T07:58:46;98909.09;;;7.25;100.00
24858;BME280;12935;50.782;6.074;2024-03-23T08:01:14;98915.72;;;7.56;100.00
24858;BME280;12935;50.782;6.074;2024-03-23T08:03:42;98918.06;;;7.58;100.00
24858;BME280;12935;50.782;6.074;2024-03-23T08:08:36;98924.25;;;7.23;100.00
24858;BME280;12935;50.782;6.074;2024-03-23T08:11:02;98932.03;;;7.38;100.00
24858;BME280;12935;50.782;6.074;2024-03-23T08:13:28;98930.84;;;7.36;100.00
24858;BME280;12935;50.782;6.074;2024-03-23T08:15:57;98933.59;;;7.47;100.00
24858;BME280;12935;50.782;6.074;2024-03-23T08:18:23;98925.44;;;7.39;100.00
24858;BME280;12935;50.782;6.074;2024-03-23T08:20:57;98928.53;;;7.45;100.00
24858;BME280;12935;50.782;6.074;2024-03-23T08:23:28;98938.63;;;7.34;100.00
24858;BME280;12935;50.782;6.074;2024-03-23T08:26:00;98936.72;;;7.52;100.00
24858;BME280;12935;50.782;6.074;2024-03-23T08:28:27;98933.59;;;7.57;100.00
24858;BME280;12935;50.782;6.074;2024-03-23T08:30:53;98932.41;;;7.44;100.00
24858;BME280;12935;50.782;6.074;2024-03-23T08:33:18;98936.69;;;7.45;100.00
24858;BME280;12935;50.782;6.074;2024-03-23T08:35:56;98932.03;;;7.56;100.00
24858;BME280;12935;50.782;6.074;2024-03-23T08:38:22;98928.56;;;7.63;100.00
24858;BME280;12935;50.782;6.074;2024-03-23T08:40:48;98937.88;;;7.62;100.00
24858;BME280;12935;50.782;6.074;2024-03-23T08:43:13;98937.91;;;7.87;100.00
24858;BME280;12935;50.782;6.074;2024-03-23T08:45:38;98932.06;;;7.70;100.00
24858;BME280;12935;50.782;6.074;2024-03-23T08:48:04;98938.66;;;7.73;100.00
24858;BME280;12935;50.782;6.074;2024-03-23T08:50:29;98939.44;;;7.88;100.00
24858;BME280;12935;50.782;6.074;2024-03-23T08:52:55;98944.09;;;7.77;100.00
24858;BME280;12935;50.782;6.074;2024-03-23T08:55:20;98941.38;;;7.66;100.00
24858;BME280;12935;50.782;6.074;2024-03-23T08:57:45;98929.28;;;7.31;100.00
24858;BME280;12935;50.782;6.074;2024-03-23T09:00:11;98942.81;;;7.14;100.00
24858;BME280;12935;50.782;6.074;2024-03-23T09:02:36;98936.59;;;7.02;100.00
24858;BME280;12935;50.782;6.074;2024-03-23T09:05:02;98941.66;;;7.04;100.00
24858;BME280;12935;50.782;6.074;2024-03-23T09:07:30;98931.16;;;7.10;100.00
24858;BME280;12935;50.782;6.074;2024-03-23T09:09:56;98937.78;;;7.12;100.00
24858;BME280;12935;50.782;6.074;2024-03-23T09:12:21;98922.28;;;7.16;100.00
24858;BME280;12935;50.782;6.074;2024-03-23T09:14:46;98934.72;;;7.31;100.00
24858;BME280;12935;50.782;6.074;2024-03-23T09:17:11;98925.34;;;7.11;100.00
24858;BME280;12935;50.782;6.074;2024-03-23T09:19:36;98915.59;;;6.96;100.00
24858;BME280;12935;50.782;6.074;2024-03-23T09:22:02;98940.06;;;6.92;100.00
24858;BME280;12935;50.782;6.074;2024-03-23T09:24:27;98938.06;;;6.82;100.00
24858;BME280;12935;50.782;6.074;2024-03-23T09:26:53;98948.75;;;6.43;100.00
24858;BME280;12935;50.782;6.074;2024-03-23T09:29:18;98943.31;;;6.43;100.00
24858;BME280;12935;50.782;6.074;2024-03-23T09:31:43;98949.53;;;6.51;100.00
24858;BME280;12935;50.782;6.074;2024-03-23T09:34:08;98947.22;;;6.53;100.00
24858;BME280;12935;50.782;6.074;2024-03-23T09:36:34;98944.13;;;6.51;100.00
24858;BME280;12935;50.782;6.074;2024-03-23T09:38:59;98945.16;;;6.32;100.00
24858;BME280;12935;50.782;6.074;2024-03-23T09:41:24;98935.91;;;6.37;100.00
24858;BME280;12935;50.782;6.074;2024-03-23T09:43:52;98939.53;;;6.58;100.00
24858;BME280;12935;50.782;6.074;2024-03-23T09:46:18;98944.28;;;6.86;100.00
24858;BME280;12935;50.782;6.074;2024-03-23T09:48:46;98933.34;;;6.68;100.00
24858;BME280;12935;50.782;6.074;2024-03-23T09:51:11;98929.53;;;6.77;100.00
24858;BME280;12935;50.782;6.074;2024-03-23T09:53:37;98919.19;;;7.28;100.00
24858;BME280;12935;50.782;6.074;2024-03-23T09:56:02;98926.63;;;7.85;100.00
24858;BME280;12935;50.782;6.074;2024-03-23T09:58:28;98919.59;;;8.12;100.00
24858;BME280;12935;50.782;6.074;2024-03-23T10:00:53;98913.38;;;8.04;100.00
24858;BME280;12935;50.782;6.074;2024-03-23T10:03:18;98919.56;;;8.44;100.00
24858;BME280;12935;50.782;6.074;2024-03-23T10:05:43;98907.06;;;8.64;100.00
24858;BME280;12935;50.782;6.074;2024-03-23T10:10:38;98929.34;;;9.25;100.00
24858;BME280;12935;50.782;6.074;2024-03-23T10:13:03;98919.22;;;9.26;100.00
24858;BME280;12935;50.782;6.074;2024-03-23T10:15:29;98914.66;;;9.01;100.00
24858;BME280;12935;50.782;6.074;2024-03-23T10:17:54;98919.19;;;8.49;100.00
24858;BME280;12935;50.782;6.074;2024-03-23T10:20:23;98911.44;;;8.12;100.00
24858;BME280;12935;50.782;6.074;2024-03-23T10:22:49;98897.84;;;8.05;100.00
24858;BME280;12935;50.782;6.074;2024-03-23T10:25:16;98913.34;;;8.19;100.00
24858;BME280;12935;50.782;6.074;2024-03-23T10:27:42;98914.91;;;8.27;100.00
24858;BME280;12935;50.782;6.074;2024-03-23T10:30:10;98911.47;;;7.98;100.00
24858;BME280;12935;50.782;6.074;2024-03-23T10:32:36;98893.59;;;8.00;100.00
24858;BME280;12935;50.782;6.074;2024-03-23T10:35:16;98908.19;;;8.74;100.00
24858;BME280;12935;50.782;6.074;2024-03-23T10:37:43;98908.72;;;9.24;100.00
24858;BME280;12935;50.782;6.074;2024-03-23T10:40:12;98901.22;;;9.91;100.00
24858;BME280;12935;50.782;6.074;2024-03-23T10:42:38;98897.28;;;9.92;100.00
24858;BME280;12935;50.782;6.074;2024-03-23T10:45:07;98902.66;;;9.58;100.00
24858;BME280;12935;50.782;6.074;2024-03-23T10:47:34;98904.81;;;9.25;100.00
24858;BME280;12935;50.782;6.074;2024-03-23T10:50:00;98887.97;;;9.41;100.00
24858;BME280;12935;50.782;6.074;2024-03-23T10:52:25;98895.81;;;9.83;99.47
24858;BME280;12935;50.782;6.074;2024-03-23T10:54:54;98897.06;;;9.20;97.21
24858;BME280;12935;50.782;6.074;2024-03-23T10:57:25;98901.13;;;9.53;100.00
24858;BME280;12935;50.782;6.074;2024-03-23T10:59:52;98889.66;;;10.21;92.76
24858;BME280;12935;50.782;6.074;2024-03-23T11:02:22;98893.28;;;11.36;92.89
24858;BME280;12935;50.782;6.074;2024-03-23T11:04:47;98890.25;;;11.53;84.96
24858;BME280;12935;50.782;6.074;2024-03-23T11:09:50;98892.53;;;10.40;79.66
24858;BME280;12935;50.782;6.074;2024-03-23T11:15:03;98891.63;;;10.13;85.67
24858;BME280;12935;50.782;6.074;2024-03-23T11:17:29;98891.25;;;10.11;85.01
24858;BME280;12935;50.782;6.074;2024-03-23T11:19:57;98902.19;;;10.52;79.44
24858;BME280;12935;50.782;6.074;2024-03-23T11:22:46;98898.94;;;10.27;81.49
24858;BME280;12935;50.782;6.074;2024-03-23T11:27:42;98902.09;;;11.97;74.22
24858;BME280;12935;50.782;6.074;2024-03-23T11:32:45;98914.09;;;13.25;64.87
24858;BME280;12935;50.782;6.074;2024-03-23T11:35:11;98899.84;;;12.35;63.62
24858;BME280;12935;50.782;6.074;2024-03-23T11:40:30;98902.28;;;12.73;60.21
24858;BME280;12935;50.782;6.074;2024-03-23T11:42:58;98903.72;;;13.17;60.54
24858;BME280;12935;50.782;6.074;2024-03-23T11:45:24;98890.72;;;13.86;55.85
24858;BME280;12935;50.782;6.074;2024-03-23T11:48:01;98883.88;;;13.45;53.73
24858;BME280;12935;50.782;6.074;2024-03-23T11:50:27;98885.88;;;12.49;56.71
24858;BME280;12935;50.782;6.074;2024-03-23T11:52:52;98874.41;;;12.94;55.20
24858;BME280;12935;50.782;6.074;2024-03-23T11:55:18;98873.59;;;13.13;54.84
24858;BME280;12935;50.782;6.074;2024-03-23T11:57:43;98885.19;;;12.65;57.20
24858;BME280;12935;50.782;6.074;2024-03-23T12:00:21;98875.06;;;12.42;55.83
24858;BME280;12935;50.782;6.074;2024-03-23T12:02:47;98898.75;;;11.36;62.44
24858;BME280;12935;50.782;6.074;2024-03-23T12:05:15;98913.59;;;9.54;74.76
24858;BME280;12935;50.782;6.074;2024-03-23T12:07:41;98899.16;;;8.88;89.00
24858;BME280;12935;50.782;6.074;2024-03-23T12:10:07;98880.56;;;8.72;93.23
24858;BME280;12935;50.782;6.074;2024-03-23T12:12:32;98875.56;;;8.56;97.81
24858;BME280;12935;50.782;6.074;2024-03-23T12:15:05;98874.47;;;8.43;100.00
24858;BME280;12935;50.782;6.074;2024-03-23T12:17:31;98872.91;;;8.31;100.00
24858;BME280;12935;50.782;6.074;2024-03-23T12:19:57;98870.06;;;8.70;100.00
24858;BME280;12935;50.782;6.074;2024-03-23T12:22:22;98862.84;;;10.46;97.45
24858;BME280;12935;50.782;6.074;2024-03-23T12:24:48;98855.66;;;11.43;86.03
24858;BME280;12935;50.782;6.074;2024-03-23T12:27:13;98852.94;;;12.53;76.95
24858;BME280;12935;50.782;6.074;2024-03-23T12:29:40;98853.72;;;12.73;65.51
24858;BME280;12935;50.782;6.074;2024-03-23T12:32:06;98867.41;;;13.09;59.29
24858;BME280;12935;50.782;6.074;2024-03-23T12:34:32;98853.50;;;13.00;57.26
24858;BME280;12935;50.782;6.074;2024-03-23T12:36:58;98852.38;;;11.52;58.60
24858;BME280;12935;50.782;6.074;2024-03-23T12:39:23;98845.34;;;11.28;61.59
24858;BME280;12935;50.782;6.074;2024-03-23T12:41:49;98858.19;;;11.04;64.11
24858;BME280;12935;50.782;6.074;2024-03-23T12:44:15;98848.91;;;11.24;64.52
24858;BME280;12935;50.782;6.074;2024-03-23T12:46:41;98844.78;;;10.86;nan
24858;BME280;12935;50.782;6.074;2024-03-23T12:49:07;98829.22;;;10.15;67.36
24858;BME280;12935;50.782;6.074;2024-03-23T12:51:32;98827.31;;;9.74;70.01
24858;BME280;12935;50.782;6.074;2024-03-23T12:54:00;98832.56;;;9.51;74.70
24858;BME280;12935;50.782;6.074;2024-03-23T12:56:26;98828.25;;;9.54;77.35
24858;BME280;12935;50.782;6.074;2024-03-23T12:58:53;98831.47;;;10.58;77.17
24858;BME280;12935;50.782;6.074;2024-03-23T13:01:20;98823.63;;;10.90;74.04
24858;BME280;12935;50.782;6.074;2024-03-23T13:03:47;98804.63;;;11.33;75.18
24858;BME280;12935;50.782;6.074;2024-03-23T13:06:12;98808.81;;;10.87;72.25
24858;BME280;12935;50.782;6.074;2024-03-23T13:08:37;98815.16;;;10.20;73.33
24858;BME280;12935;50.782;6.074;2024-03-23T13:11:02;98822.34;;;10.03;76.35
24858;BME280;12935;50.782;6.074;2024-03-23T13:13:28;98822.03;;;9.94;78.88
24858;BME280;12935;50.782;6.074;2024-03-23T13:15:53;98819.75;;;8.93;90.66
24858;BME280;12935;50.782;6.074;2024-03-23T13:18:18;98829.78;;;8.33;100.00
24858;BME280;12935;50.782;6.074;2024-03-23T13:20:44;98823.25;;;8.02;100.00
24858;BME280;12935;50.782;6.074;2024-03-23T13:23:09;98822.09;;;7.89;100.00
24858;BME280;12935;50.782;6.074;2024-03-23T13:25:34;98839.97;;;7.80;100.00
24858;BME280;12935;50.782;6.074;2024-03-23T13:28:00;98829.13;;;7.65;100.00
24858;BME280;12935;50.782;6.074;2024-03-23T13:30:26;98847.78;;;7.67;100.00
24858;BME280;12935;50.782;6.074;2024-03-23T13:32:51;98831.47;;;7.63;100.00
24858;BME280;12935;50.782;6.074;2024-03-23T13:35:16;98838.84;;;8.89;100.00
24858;BME280;12935;50.782;6.074;2024-03-23T13:37:42;98831.78;;;13.74;84.56
24858;BME280;12935;50.782;6.074;2024-03-23T13:40:08;98824.75;;;12.33;78.57
24858;BME280;12935;50.782;6.074;2024-03-23T13:42:33;98809.28;;;11.09;86.98
24858;BME280;12935;50.782;6.074;2024-03-23T13:44:58;98811.72;;;10.09;91.79
24858;BME280;12935;50.782;6.074;2024-03-23T13:47:23;98814.88;;;9.22;91.62
24858;BME280;12935;50.782;6.074;2024-03-23T13:49:49;98820.47;;;9.04;95.37
24858;BME280;12935;50.782;6.074;2024-03-23T13:52:14;98823.97;;;9.04;95.89
24858;BME280;12935;50.782;6.074;2024-03-23T13:54:39;98823.19;;;9.00;92.01
24858;BME280;12935;50.782;6.074;2024-03-23T13:57:10;98815.50;;;8.88;90.19
24858;BME280;12935;50.782;6.074;2024-03-23T13:59:36;98853.88;;;9.63;89.06
24858;BME280;12935;50.782;6.074;2024-03-23T14:02:01;98839.22;;;12.33;76.37
24858;BME280;12935;50.782;6.074;2024-03-23T14:04:26;98836.28;;;11.81;71.37